Legend Of The Seas — C6SL5 — position and weather

sailwx.info

Track history (hours):
 
Tides and Currents Weather Stations Pressure Air Temp Water Temp Dewpoint Dewpoint Depression Visibility Wind Speed Wind Dir Waves Ship Positions

Legend Of The Seas

Operator: Royal Caribbean Cruises Ltd

Last reported at 2014-Sep-20 10:13 UTC. Time now 2014-Sep-21 14:05 UTC.
Position N 47°31' W 052°31'.

Type: Passenger vessel. MMSI: 311378000.

Date/timePositionNaut miles runAvg speedWind from/ knotsBaromVisibWave heightAir tempDewpointWater temp
2014-Sep-20 10:13N 47°31' W 052°31'2 3.2
2014-Sep-20 09:29N 47°32' W 052°34'3 3.2
2014-Sep-20 08:30N 47°35' W 052°37'  
2014-Sep-13 20:26N 61°57' W 007°22'1414.1
2014-Sep-13 19:26N 61°55' W 006°53'6 6.7
2014-Sep-13 18:33N 62°00' W 006°46'0 0.2
2014-Sep-13 17:29N 62°00' W 006°46'0 0.0
2014-Sep-13 16:23N 62°00' W 006°46'0 0.0
2014-Sep-13 15:26N 62°00' W 006°46'0 0.0
2014-Sep-13 14:32N 62°00' W 006°46'0 0.0
2014-Sep-13 13:20N 62°00' W 006°46'0 0.0
2014-Sep-13 12:32N 62°00' W 006°46'1 0.6
2014-Sep-13 11:28N 61°60' W 006°45'0 0.1
2014-Sep-13 10:22N 61°60' W 006°45'0 0.1
2014-Sep-13 09:28N 61°60' W 006°45'0 0.2
2014-Sep-13 08:25N 61°60' W 006°45'910.4
2014-Sep-13 07:33N 61°54' W 006°31'1414.3
2014-Sep-13 06:33N 61°47' W 006°04'1414.4
2014-Sep-13 05:33N 61°36' W 005°44'1414.3
2014-Sep-13 04:33N 61°26' W 005°24'1514.8
2014-Sep-13 03:32N 61°14' W 005°04'1414.4
2014-Sep-13 02:33N 61°03' W 004°45'1514.1
2014-Sep-13 01:32N 60°52' W 004°26'1413.9
2014-Sep-13 00:32N 60°42' W 004°07'1414.1
2014-Sep-12 23:31N 60°31' W 003°49'1914.1
2014-Sep-12 22:10N 60°16' W 003°24'294 7.1
2014-Sep-11 04:33N 58°21' E 005°25'9 9.4
2014-Sep-11 03:33N 58°15' E 005°39'10 9.5
2014-Sep-11 02:33N 58°09' E 005°52'10 9.7
2014-Sep-11 01:33N 58°03' E 006°07'  
Track history (hours):
 
Tides and Currents Weather Stations Pressure Air Temp Water Temp Dewpoint Dewpoint Depression Visibility Wind Speed Wind Dir Waves Ship Positions

Legend Of The Seas

Operator: Royal Caribbean Cruises Ltd

Last reported at 2014-Sep-20 10:13 UTC. Time now 2014-Sep-21 14:05 UTC.
Position N 47°31' W 052°31'.

Type: Passenger vessel. MMSI: 311378000.

Date/timePositionNaut miles runAvg speedWind from/ knotsBaromVisibWave heightAir tempDewpointWater temp
2014-Sep-20 10:13N 47°31' W 052°31'2 3.2
2014-Sep-20 09:29N 47°32' W 052°34'3 3.2
2014-Sep-20 08:30N 47°35' W 052°37'  
2014-Sep-13 20:26N 61°57' W 007°22'1414.1
2014-Sep-13 19:26N 61°55' W 006°53'6 6.7
2014-Sep-13 18:33N 62°00' W 006°46'0 0.2
2014-Sep-13 17:29N 62°00' W 006°46'0 0.0
2014-Sep-13 16:23N 62°00' W 006°46'0 0.0
2014-Sep-13 15:26N 62°00' W 006°46'0 0.0
2014-Sep-13 14:32N 62°00' W 006°46'0 0.0
2014-Sep-13 13:20N 62°00' W 006°46'0 0.0
2014-Sep-13 12:32N 62°00' W 006°46'1 0.6
2014-Sep-13 11:28N 61°60' W 006°45'0 0.1
2014-Sep-13 10:22N 61°60' W 006°45'0 0.1
2014-Sep-13 09:28N 61°60' W 006°45'0 0.2
2014-Sep-13 08:25N 61°60' W 006°45'910.4
2014-Sep-13 07:33N 61°54' W 006°31'1414.3
2014-Sep-13 06:33N 61°47' W 006°04'1414.4
2014-Sep-13 05:33N 61°36' W 005°44'1414.3
2014-Sep-13 04:33N 61°26' W 005°24'1514.8
2014-Sep-13 03:32N 61°14' W 005°04'1414.4
2014-Sep-13 02:33N 61°03' W 004°45'1514.1
2014-Sep-13 01:32N 60°52' W 004°26'1413.9
2014-Sep-13 00:32N 60°42' W 004°07'1414.1
2014-Sep-12 23:31N 60°31' W 003°49'1914.1
2014-Sep-12 22:10N 60°16' W 003°24'294 7.1
2014-Sep-11 04:33N 58°21' E 005°25'9 9.4
2014-Sep-11 03:33N 58°15' E 005°39'10 9.5
2014-Sep-11 02:33N 58°09' E 005°52'10 9.7
2014-Sep-11 01:33N 58°03' E 006°07'  

Dump ship's entire track history